createdAt,value
2022-08-07T00:00:35.842Z,70.49
2022-08-07T00:03:19.461Z,70.60
2022-08-07T00:09:17.005Z,70.97
2022-08-07T00:11:55.477Z,70.83
2022-08-07T00:14:44.615Z,70.72
2022-08-07T00:20:43.997Z,71.00
2022-08-07T00:23:28.399Z,71.49
2022-08-07T00:27:06.413Z,72.08
2022-08-07T00:37:25.798Z,72.19
2022-08-07T00:39:01.281Z,72.44
2022-08-07T00:42:25.482Z,72.32
2022-08-07T00:45:18.511Z,72.68
2022-08-07T00:48:10.336Z,72.83
2022-08-07T00:50:53.323Z,72.97
2022-08-07T00:53:50.852Z,73.04
2022-08-07T00:56:58.940Z,73.69
2022-08-07T01:07:28.120Z,73.33
2022-08-07T01:19:41.881Z,73.49
2022-08-07T01:26:40.829Z,73.45
2022-08-07T01:33:06.114Z,73.58
2022-08-07T01:48:20.113Z,73.78
2022-08-07T02:41:50.703Z,74.90
2022-08-07T03:43:22.707Z,76.03
2022-08-07T04:14:37.900Z,76.83
2022-08-07T04:18:57.652Z,76.49
2022-08-07T04:22:12.141Z,76.73
2022-08-07T04:32:14.751Z,76.66
2022-08-07T04:35:37.327Z,76.78
2022-08-07T05:07:30.650Z,77.57
2022-08-07T05:11:11.996Z,77.45
2022-08-07T05:31:51.237Z,77.25
2022-08-07T05:49:11.865Z,77.55
2022-08-07T05:52:32.179Z,77.54
2022-08-07T05:54:53.410Z,77.70
2022-08-07T06:01:00.668Z,77.53
2022-08-07T06:11:19.675Z,77.40
2022-08-07T06:31:57.872Z,76.29
2022-08-07T08:14:10.139Z,67.38
2022-08-07T09:14:40.263Z,59.13
2022-08-07T09:36:01.308Z,61.49
2022-08-07T09:38:10.881Z,58.98
2022-08-07T09:40:53.536Z,52.03
2022-08-07T09:43:40.198Z,51.40
2022-08-07T09:46:29.228Z,52.77
2022-08-07T09:50:01.083Z,50.64
2022-08-07T09:52:34.803Z,50.50
2022-08-07T09:55:28.790Z,46.31
2022-08-07T09:58:32.461Z,46.81
2022-08-07T10:01:14.933Z,47.76
2022-08-07T10:04:15.967Z,47.68
2022-08-07T10:07:25.892Z,48.08
2022-08-07T10:10:28.297Z,48.44
2022-08-07T10:13:29.790Z,44.03
2022-08-07T10:16:14.955Z,43.91
2022-08-07T10:19:11.133Z,42.39
2022-08-07T10:22:12.417Z,44.47
2022-08-07T10:25:12.888Z,42.20
2022-08-07T10:28:02.540Z,41.78
2022-08-07T10:30:53.580Z,40.27
2022-08-07T10:34:06.629Z,42.12
2022-08-07T10:36:38.489Z,41.61
2022-08-07T10:39:18.080Z,41.40
2022-08-07T10:42:01.651Z,40.94
2022-08-07T10:44:48.019Z,40.19
2022-08-07T10:47:53.626Z,38.78
2022-08-07T10:50:25.859Z,38.41
2022-08-07T10:53:05.227Z,37.25
2022-08-07T10:55:44.133Z,35.86
2022-08-07T10:58:25.036Z,35.45
2022-08-07T11:01:22.360Z,34.77
2022-08-07T11:04:23.372Z,35.31
2022-08-07T11:06:59.033Z,35.63
2022-08-07T11:10:07.964Z,35.50
2022-08-07T11:12:32.269Z,35.82
2022-08-07T11:15:02.747Z,37.63
2022-08-07T11:17:45.778Z,37.71
2022-08-07T11:20:19.585Z,38.40
2022-08-07T11:23:01.404Z,38.33
2022-08-07T11:25:36.052Z,37.30
2022-08-07T11:28:15.320Z,37.05
2022-08-07T11:30:53.339Z,35.48
2022-08-07T11:33:59.730Z,35.25
2022-08-07T11:36:39.420Z,34.76
2022-08-07T11:39:19.519Z,34.00
2022-08-07T11:42:01.973Z,33.18
2022-08-07T11:44:52.591Z,32.56
2022-08-07T11:47:55.867Z,31.40
2022-08-07T11:50:44.667Z,32.72
2022-08-07T11:53:37.331Z,32.76
2022-08-07T11:56:28.445Z,33.65
2022-08-07T11:59:22.059Z,34.77
2022-08-07T12:02:03.064Z,35.63
2022-08-07T12:04:56.859Z,34.57
2022-08-07T12:07:38.904Z,35.17
2022-08-07T12:10:13.818Z,34.96
2022-08-07T12:12:43.891Z,34.63
2022-08-07T12:15:17.046Z,34.00
2022-08-07T12:18:11.239Z,34.64
2022-08-07T12:20:49.492Z,34.32
2022-08-07T12:24:05.303Z,34.02
2022-08-07T12:26:35.392Z,34.69
2022-08-07T12:29:12.044Z,34.56
2022-08-07T12:32:01.719Z,34.33
2022-08-07T12:34:34.439Z,33.99
2022-08-07T12:37:08.556Z,34.01
2022-08-07T12:39:51.329Z,34.54
2022-08-07T12:42:27.839Z,34.96
2022-08-07T12:44:59.147Z,34.99
2022-08-07T12:47:40.695Z,35.32
2022-08-07T12:50:38.131Z,34.24
2022-08-07T12:53:17.659Z,32.60
2022-08-07T12:56:02.461Z,32.86
2022-08-07T12:58:35.700Z,32.98
2022-08-07T13:01:09.605Z,32.41
2022-08-07T13:04:05.050Z,30.88
2022-08-07T13:07:00.461Z,30.83
2022-08-07T13:10:20.905Z,31.08
2022-08-07T13:12:43.583Z,29.38
2022-08-07T13:15:31.637Z,29.60
2022-08-07T13:18:26.916Z,29.39
2022-08-07T13:21:05.181Z,29.68
2022-08-07T13:24:00.712Z,30.13
2022-08-07T13:26:39.250Z,30.88
2022-08-07T13:29:15.504Z,30.65
2022-08-07T13:31:57.879Z,31.43
2022-08-07T13:34:37.159Z,31.08
2022-08-07T13:37:10.807Z,30.37
2022-08-07T13:40:32.707Z,30.56
2022-08-07T13:42:39.330Z,30.63
2022-08-07T13:46:11.610Z,29.86
2022-08-07T13:48:07.745Z,30.26
2022-08-07T13:50:45.295Z,30.59
2022-08-07T13:53:55.327Z,31.34
2022-08-07T13:56:35.357Z,30.95
2022-08-07T13:59:12.271Z,31.43
2022-08-07T14:02:03.974Z,31.96
2022-08-07T14:04:35.796Z,32.30
2022-08-07T14:07:09.402Z,33.46
2022-08-07T14:10:01.344Z,34.89
2022-08-07T14:12:30.253Z,35.15
2022-08-07T14:15:03.225Z,35.91
2022-08-07T14:18:27.061Z,35.65
2022-08-07T14:20:39.156Z,36.84
2022-08-07T14:23:59.564Z,36.44
2022-08-07T14:30:08.023Z,36.37
2022-08-07T14:32:24.828Z,36.52
2022-08-07T14:48:49.366Z,36.98
2022-08-07T15:00:05.781Z,35.59
2022-08-07T15:12:01.292Z,36.42
2022-08-07T15:32:38.859Z,36.67
2022-08-07T17:09:10.663Z,44.54
2022-08-07T17:21:18.723Z,46.14
2022-08-07T17:24:46.957Z,47.52
2022-08-07T17:49:13.739Z,50.10
2022-08-07T18:18:33.134Z,52.10
2022-08-07T18:21:05.947Z,51.07
2022-08-07T18:24:34.014Z,51.92
2022-08-07T18:52:34.968Z,52.89
2022-08-07T18:59:47.276Z,53.40
2022-08-07T19:02:56.371Z,53.76
2022-08-07T19:13:10.364Z,54.02
2022-08-07T19:20:03.905Z,55.14
2022-08-07T19:36:08.808Z,55.49
2022-08-07T19:46:15.688Z,56.06
2022-08-07T19:59:47.510Z,56.93
2022-08-07T20:06:02.036Z,57.83
2022-08-07T20:10:33.368Z,57.47
2022-08-07T20:26:05.331Z,58.22
2022-08-07T20:43:19.575Z,59.30
2022-08-07T20:56:48.529Z,61.15
2022-08-07T21:06:28.111Z,61.66
2022-08-07T21:13:16.787Z,62.69
2022-08-07T21:16:34.833Z,62.60
2022-08-07T21:35:05.867Z,64.65
2022-08-07T21:40:36.174Z,65.26
2022-08-07T21:47:22.807Z,65.63
2022-08-07T22:00:04.443Z,66.02
2022-08-07T22:03:43.214Z,67.80
2022-08-07T22:06:59.430Z,68.95
2022-08-07T22:10:13.045Z,68.37
2022-08-07T22:13:24.167Z,69.22
2022-08-07T22:17:17.467Z,68.69
2022-08-07T22:33:53.347Z,69.76
2022-08-07T22:38:01.710Z,70.43
2022-08-07T22:54:29.828Z,71.13
2022-08-07T22:57:48.313Z,71.52
2022-08-07T23:07:41.633Z,72.13
2022-08-07T23:15:03.000Z,72.50
2022-08-07T23:21:36.592Z,72.27
2022-08-07T23:25:06.524Z,72.06
2022-08-07T23:28:33.292Z,72.05
2022-08-07T23:32:49.310Z,72.49
